createdAt,value
2018-11-11T00:01:26.221Z,6.80
2018-11-11T00:06:29.946Z,6.60
2018-11-11T00:11:33.464Z,6.00
2018-11-11T00:16:36.966Z,6.00
2018-11-11T00:21:40.498Z,5.75
2018-11-11T00:26:44.033Z,6.00
2018-11-11T00:31:47.485Z,5.40
2018-11-11T00:36:50.932Z,6.20
2018-11-11T00:41:54.417Z,5.50
2018-11-11T00:46:57.904Z,5.60
2018-11-11T00:52:01.405Z,5.50
2018-11-11T00:57:04.855Z,6.20
2018-11-11T01:02:08.318Z,6.40
2018-11-11T01:07:11.847Z,5.40
2018-11-11T01:12:15.362Z,5.00
2018-11-11T01:17:19.055Z,5.00
2018-11-11T01:22:22.510Z,5.00
2018-11-11T01:27:26.024Z,6.00
2018-11-11T01:32:29.442Z,5.00
2018-11-11T01:37:32.978Z,4.40
2018-11-11T01:42:36.543Z,6.00
2018-11-11T01:47:40.073Z,4.40
2018-11-11T01:52:43.594Z,5.00
2018-11-11T01:57:47.202Z,5.75
2018-11-11T02:02:50.825Z,5.00
2018-11-11T02:07:54.440Z,4.75
2018-11-11T02:12:57.890Z,4.60
2018-11-11T02:18:01.330Z,3.75
2018-11-11T02:23:04.940Z,3.60
2018-11-11T02:28:08.439Z,5.00
2018-11-11T02:33:11.858Z,5.20
2018-11-11T02:38:15.283Z,5.00
2018-11-11T02:43:18.740Z,5.00
2018-11-11T02:48:22.156Z,4.25
2018-11-11T02:53:25.693Z,5.00
2018-11-11T02:58:29.191Z,4.50
2018-11-11T03:03:32.607Z,4.00
2018-11-11T03:08:36.133Z,3.60
2018-11-11T03:13:39.569Z,4.00
2018-11-11T03:18:43.081Z,5.00
2018-11-11T03:23:46.614Z,5.25
2018-11-11T03:28:50.045Z,3.60
2018-11-11T03:33:53.505Z,3.25
2018-11-11T03:38:56.957Z,4.00
2018-11-11T03:44:00.366Z,3.75
2018-11-11T03:49:03.895Z,3.00
2018-11-11T03:54:07.321Z,3.25
2018-11-11T03:59:10.711Z,3.60
2018-11-11T04:04:14.249Z,3.75
2018-11-11T04:09:17.828Z,5.20
2018-11-11T04:14:21.252Z,4.00
2018-11-11T04:19:25.662Z,3.25
2018-11-11T04:24:29.156Z,3.00
2018-11-11T04:29:32.574Z,3.00
2018-11-11T04:34:36.016Z,2.80
2018-11-11T04:39:40.073Z,3.00
2018-11-11T04:44:43.574Z,3.75
2018-11-11T04:49:47.029Z,4.00
2018-11-11T04:54:50.599Z,3.25
2018-11-11T04:59:54.109Z,3.60
2018-11-11T05:04:57.613Z,3.00
2018-11-11T05:10:01.157Z,3.00
2018-11-11T05:15:04.878Z,3.00
2018-11-11T05:20:09.323Z,4.20
2018-11-11T05:25:13.984Z,4.20
2018-11-11T05:30:17.392Z,3.40
2018-11-11T05:35:20.888Z,2.40
2018-11-11T05:40:24.383Z,3.40
2018-11-11T05:45:27.962Z,3.20
2018-11-11T05:50:31.377Z,3.75
2018-11-11T05:55:34.827Z,3.00
2018-11-11T06:00:38.612Z,2.50
2018-11-11T06:05:42.028Z,3.00
2018-11-11T06:10:45.449Z,3.25
2018-11-11T06:15:48.897Z,2.60
2018-11-11T06:20:52.300Z,3.00
2018-11-11T06:25:55.727Z,3.20
2018-11-11T06:30:59.140Z,3.00
2018-11-11T06:36:02.617Z,2.80
2018-11-11T06:41:06.406Z,3.00
2018-11-11T06:46:09.834Z,3.00
2018-11-11T06:51:13.245Z,2.25
2018-11-11T06:56:16.638Z,3.75
2018-11-11T07:01:20.034Z,2.00
2018-11-11T07:06:24.121Z,2.80
2018-11-11T07:11:27.529Z,2.40
2018-11-11T07:16:30.954Z,3.40
2018-11-11T07:21:34.425Z,2.75
2018-11-11T07:26:38.069Z,3.20
2018-11-11T07:31:41.473Z,2.00
2018-11-11T07:36:44.899Z,2.60
2018-11-11T07:41:48.322Z,3.20
2018-11-11T07:46:51.743Z,3.00
2018-11-11T07:51:55.318Z,2.60
2018-11-11T07:56:58.815Z,1.80
2018-11-11T08:02:02.401Z,3.00
2018-11-11T08:07:06.418Z,15.40
2018-11-11T08:12:09.881Z,15.00
2018-11-11T08:17:13.321Z,16.25
2018-11-11T08:22:16.787Z,13.20
2018-11-11T08:27:20.267Z,11.00
2018-11-11T08:32:24.003Z,10.80
2018-11-11T08:37:27.494Z,10.50
2018-11-11T08:42:33.990Z,11.60
2018-11-11T08:47:37.435Z,13.00
2018-11-11T08:52:41.178Z,11.20
2018-11-11T08:57:44.672Z,12.40
2018-11-11T09:02:48.781Z,12.25
2018-11-11T09:07:52.285Z,12.25
2018-11-11T09:12:55.789Z,12.25
2018-11-11T09:17:59.321Z,11.80
2018-11-11T09:23:03.025Z,9.80
2018-11-11T09:28:06.728Z,9.75
2018-11-11T09:33:10.240Z,11.00
2018-11-11T09:38:13.718Z,10.50
2018-11-11T09:43:17.190Z,13.80
2018-11-11T09:48:20.885Z,10.20
2018-11-11T09:53:24.516Z,11.00
2018-11-11T09:58:28.099Z,10.00
2018-11-11T10:03:35.359Z,14.50
2018-11-11T10:09:48.011Z,10.60
2018-11-11T10:15:01.370Z,9.00
2018-11-11T10:20:11.643Z,10.50
2018-11-11T10:25:25.274Z,10.50
2018-11-11T10:30:39.632Z,11.20
2018-11-11T10:35:47.002Z,10.40
2018-11-11T10:41:04.629Z,10.40
2018-11-11T10:46:16.800Z,10.75
2018-11-11T10:51:20.439Z,11.75
2018-11-11T10:56:24.121Z,9.25
2018-11-11T11:02:30.667Z,11.00
2018-11-11T11:07:34.142Z,9.75
2018-11-11T11:12:38.157Z,10.80
2018-11-11T11:17:42.263Z,9.00
2018-11-11T11:22:46.270Z,9.20
2018-11-11T11:27:50.371Z,8.20
2018-11-11T11:32:53.830Z,9.20
2018-11-11T11:37:57.475Z,9.00
2018-11-11T11:43:00.937Z,7.40
2018-11-11T11:48:04.388Z,7.50
2018-11-11T11:53:08.731Z,10.00
2018-11-11T11:58:20.883Z,11.00
2018-11-11T12:03:24.320Z,12.00
2018-11-11T12:08:27.821Z,11.60
2018-11-11T12:13:31.274Z,10.00
2018-11-11T12:18:34.695Z,9.75
2018-11-11T12:23:38.297Z,10.25
2018-11-11T12:28:41.789Z,10.40
2018-11-11T12:33:45.420Z,9.00
2018-11-11T12:38:48.857Z,10.00
2018-11-11T12:43:52.402Z,9.20
2018-11-11T12:48:56.048Z,6.80
2018-11-11T12:53:59.594Z,6.25
2018-11-11T12:59:03.042Z,6.80
2018-11-11T13:04:06.499Z,5.75
2018-11-11T13:09:10.462Z,4.00
2018-11-11T13:14:13.858Z,5.25
2018-11-11T13:19:17.342Z,5.20
2018-11-11T13:24:20.780Z,4.00
2018-11-11T13:29:24.490Z,4.00
2018-11-11T13:34:28.199Z,5.40
2018-11-11T13:39:31.712Z,4.00
2018-11-11T13:44:35.144Z,4.00
2018-11-11T13:49:38.546Z,3.50
2018-11-11T13:54:42.006Z,2.75
2018-11-11T13:59:45.448Z,3.50
2018-11-11T14:04:48.891Z,2.60
2018-11-11T14:09:52.302Z,2.00
2018-11-11T14:14:55.802Z,3.00
2018-11-11T14:19:59.401Z,3.20
2018-11-11T14:25:02.961Z,2.00
2018-11-11T14:30:09.521Z,2.20
2018-11-11T14:35:13.599Z,2.25
2018-11-11T14:40:22.854Z,2.00
2018-11-11T14:45:26.801Z,2.50
2018-11-11T14:50:30.317Z,2.00
2018-11-11T14:55:33.768Z,2.40
2018-11-11T15:00:37.267Z,2.00
2018-11-11T15:05:40.682Z,2.00
2018-11-11T15:10:44.189Z,2.20
2018-11-11T15:15:47.683Z,2.75
2018-11-11T15:20:51.270Z,2.00
2018-11-11T15:25:54.562Z,2.40
2018-11-11T15:30:58.272Z,2.00
2018-11-11T15:36:02.557Z,2.60
2018-11-11T15:41:05.973Z,1.00
2018-11-11T15:46:09.505Z,2.25
2018-11-11T15:51:13.101Z,2.00
2018-11-11T15:56:16.879Z,2.50
2018-11-11T16:01:20.451Z,2.00
2018-11-11T16:06:24.492Z,2.00
2018-11-11T16:11:27.874Z,2.00
2018-11-11T16:16:31.287Z,2.00
2018-11-11T16:21:34.813Z,1.00
2018-11-11T16:26:38.247Z,2.75
2018-11-11T16:31:41.825Z,2.20
2018-11-11T16:36:45.399Z,2.00
2018-11-11T16:41:48.891Z,1.80
2018-11-11T16:46:52.428Z,2.00
2018-11-11T16:51:55.948Z,1.80
2018-11-11T16:56:59.444Z,1.00
2018-11-11T17:02:03.994Z,1.00
2018-11-11T17:07:07.415Z,1.50
2018-11-11T17:12:10.949Z,2.60
2018-11-11T17:17:14.617Z,2.25
2018-11-11T17:22:18.419Z,3.00
2018-11-11T17:27:21.530Z,2.00
2018-11-11T17:32:24.962Z,1.00
2018-11-11T17:37:28.346Z,1.00
2018-11-11T17:42:31.737Z,2.00
2018-11-11T17:47:35.137Z,1.80
2018-11-11T17:52:39.009Z,1.40
2018-11-11T17:57:43.027Z,1.00
2018-11-11T18:02:46.674Z,0.75
2018-11-11T18:07:50.234Z,1.80
2018-11-11T18:12:53.786Z,2.00
2018-11-11T18:17:57.342Z,1.00
2018-11-11T18:23:01.649Z,1.00
2018-11-11T18:28:05.366Z,1.50
2018-11-11T18:33:08.632Z,1.50
2018-11-11T18:38:12.059Z,1.20
2018-11-11T18:43:15.477Z,1.75
2018-11-11T18:48:18.883Z,0.60
2018-11-11T18:53:22.336Z,1.00
2018-11-11T18:58:25.798Z,1.20
2018-11-11T19:03:29.342Z,2.00
2018-11-11T19:08:32.906Z,1.00
2018-11-11T19:13:36.488Z,2.00
2018-11-11T19:18:40.688Z,0.25
2018-11-11T19:23:44.598Z,1.40
2018-11-11T19:28:48.025Z,0.60
2018-11-11T19:33:51.498Z,1.00
2018-11-11T19:38:54.927Z,1.00
2018-11-11T19:43:58.317Z,1.00
2018-11-11T19:49:01.782Z,1.00
2018-11-11T19:54:05.401Z,2.00
2018-11-11T19:59:08.833Z,1.00
2018-11-11T20:04:12.388Z,1.80
2018-11-11T20:09:15.838Z,1.60
2018-11-11T20:14:19.323Z,1.00
2018-11-11T20:19:22.750Z,2.00
2018-11-11T20:24:26.219Z,1.00
2018-11-11T20:29:29.649Z,1.00
2018-11-11T20:34:32.083Z,1.60
2018-11-11T20:39:35.488Z,1.00
2018-11-11T20:44:39.948Z,1.20
2018-11-11T20:49:43.610Z,1.00
2018-11-11T20:54:48.479Z,1.00
2018-11-11T20:59:51.908Z,1.00
2018-11-11T21:04:55.378Z,1.00
2018-11-11T21:09:58.815Z,1.00
2018-11-11T21:15:02.354Z,0.00
2018-11-11T21:20:07.925Z,0.80
2018-11-11T21:25:11.458Z,0.60
2018-11-11T21:30:16.252Z,1.00
2018-11-11T21:35:19.739Z,1.00
2018-11-11T21:40:24.225Z,1.00
2018-11-11T21:45:28.853Z,1.00
2018-11-11T21:50:32.289Z,1.00
2018-11-11T21:55:35.703Z,1.40
2018-11-11T22:00:39.199Z,1.00
2018-11-11T22:05:42.586Z,0.80
2018-11-11T22:10:46.011Z,1.00
2018-11-11T22:15:49.650Z,1.20
2018-11-11T22:20:53.030Z,0.00
2018-11-11T22:25:56.486Z,1.00
2018-11-11T22:30:59.937Z,1.00
2018-11-11T22:36:03.625Z,1.20
2018-11-11T22:41:07.089Z,0.75
2018-11-11T22:46:10.564Z,1.00
2018-11-11T22:51:14.011Z,1.00
2018-11-11T22:56:17.470Z,0.40
2018-11-11T23:01:22.120Z,0.20
2018-11-11T23:06:25.472Z,1.00
2018-11-11T23:11:28.925Z,1.00
2018-11-11T23:16:32.467Z,0.50
2018-11-11T23:21:36.519Z,1.00
2018-11-11T23:26:40.326Z,0.25
2018-11-11T23:31:44.210Z,1.00
2018-11-11T23:36:47.975Z,0.40
2018-11-11T23:41:52.788Z,0.80
2018-11-11T23:46:56.223Z,0.20
2018-11-11T23:51:59.718Z,0.00
2018-11-11T23:57:10.080Z,0.20
